Terminal Aerodrome Forecast
Issued by NWS Sterling, VA

Home | Current Version | Previous Version | Text Only | Print | Product List | Glossary On
Versions: 1 2 3 4 5 6 7 8 9 10 11 12 13 14 15 16 17 18 19 20 21
000
FTUS41 KLWX 250908 AAA
TAFDCA
TAF AMD
KDCA 250908Z 2509/2606 18012KT P6SM FEW015 BKN050
     FM251000 18012KT P6SM BKN015
     FM251500 18013G21KT P6SM BKN035
     FM251800 20014G24KT 4SM -SHRA VCTS OVC040CB
     FM252100 29017G28KT P6SM OVC040
     FM260000 29017G31KT P6SM BKN250
     FM260400 30017G32KT P6SM FEW040=

USA.gov is the U.S. government's official web portal to all federal, state and local government web resources and services.